Time;durP1;ratioP1;P1;durP2;ratioP2;P2;SDS_P1;SDS_P2;PMS_P1;PMS_P2;Temp;Humidity;BMP_temperature;BMP_pressure;BME280_temperature;BME280_humidity;BME280_pressure;Samples;Min_cycle;Max_cycle;Signal;HPM_P1;HPM_P2
2021/06/17 00:01:41;;;;;;;14.05;12.57;;;;;;;;;;4438524;32;20225;-78
2021/06/17 00:04:06;;;;;;;13.18;11.57;;;;;;;;;;4437378;32;20138;-78
2021/06/17 00:06:32;;;;;;;17.33;11.80;;;;;;;;;;4439462;32;20163;-77
2021/06/17 00:08:57;;;;;;;18.97;12.97;;;;;;;;;;4437381;32;20264;-77
2021/06/17 00:11:22;;;;;;;15.98;13.43;;;;;;;;;;4423209;32;20371;-78
2021/06/17 00:13:47;;;;;;;14.30;12.88;;;;;;;;;;4439285;32;20481;-76
2021/06/17 00:16:12;;;;;;;15.63;10.90;;;;;;;;;;4426034;32;20145;-74
2021/06/17 00:18:38;;;;;;;13.32;11.88;;;;;;;;;;4425277;32;20209;-79
2021/06/17 00:21:03;;;;;;;15.75;14.05;;;;;;;;;;4438568;32;20153;-77
2021/06/17 00:23:29;;;;;;;16.83;13.98;;;;;;;;;;4437169;32;20168;-78
2021/06/17 00:25:56;;;;;;;14.23;12.63;;;;;;;;;;4424788;32;20165;-77
2021/06/17 00:28:21;;;;;;;19.85;14.45;;;;;;;;;;4437029;32;20142;-78
2021/06/17 00:30:46;;;;;;;18.73;13.07;;;;;;;;;;4438023;32;20302;-77
2021/06/17 00:33:11;;;;;;;13.30;11.57;;;;;;;;;;4438868;32;20257;-78
2021/06/17 00:35:37;;;;;;;13.87;12.10;;;;;;;;;;4419891;32;20208;-79
2021/06/17 00:38:03;;;;;;;14.32;12.07;;;;;;;;;;4435328;32;20674;-78
2021/06/17 00:40:29;;;;;;;14.07;11.77;;;;;;;;;;4432686;32;20181;-79
2021/06/17 00:42:54;;;;;;;14.43;12.77;;;;;;;;;;4437165;32;20141;-76
2021/06/17 00:45:24;;;;;;;15.95;12.05;;;;;;;;;;4438708;32;20138;-79
2021/06/17 00:47:49;;;;;;;14.48;10.95;;;;;;;;;;4430271;32;20200;-79
2021/06/17 00:50:15;;;;;;;13.93;12.43;;;;;;;;;;4424810;32;20626;-78
2021/06/17 00:52:41;;;;;;;13.05;11.25;;;;;;;;;;4436876;32;20526;-76
2021/06/17 00:55:06;;;;;;;18.85;13.45;;;;;;;;;;4424416;32;20181;-78
2021/06/17 00:57:31;;;;;;;15.77;12.37;;;;;;;;;;4442706;32;20134;-78
2021/06/17 00:59:56;;;;;;;15.55;11.40;;;;;;;;;;4441874;32;20160;-78
2021/06/17 01:02:23;;;;;;;13.60;12.20;;;;;;;;;;4448009;32;20236;-77
2021/06/17 01:04:48;;;;;;;17.17;13.57;;;;;;;;;;4429755;32;20334;-77
2021/06/17 01:07:19;;;;;;;16.42;13.52;;;;;;;;;;4424071;32;20576;-78
2021/06/17 01:09:50;;;;;;;13.85;12.10;;;;;;;;;;4438723;32;20176;-78
2021/06/17 01:12:15;;;;;;;12.88;11.52;;;;;;;;;;4438690;32;20188;-78
2021/06/17 01:14:42;;;;;;;17.80;15.07;;;;;;;;;;4437672;32;20134;-78
2021/06/17 01:17:10;;;;;;;17.23;14.77;;;;;;;;;;4436272;32;20737;-78
2021/06/17 01:19:41;;;;;;;14.85;13.25;;;;;;;;;;4437978;32;20674;-78
2021/06/17 01:22:09;;;;;;;16.33;13.70;;;;;;;;;;4437599;32;20184;-77
2021/06/17 01:24:43;;;;;;;17.25;13.68;;;;;;;;;;4438000;32;20168;-77
2021/06/17 01:27:27;;;;;;;16.30;14.63;;;;;;;;;;4437925;32;20133;-78
2021/06/17 01:29:55;;;;;;;17.33;15.25;;;;;;;;;;4437265;32;20134;-77
2021/06/17 01:32:23;;;;;;;15.15;13.15;;;;;;;;;;4438446;32;20192;-77
2021/06/17 01:34:49;;;;;;;18.17;16.37;;;;;;;;;;4422113;32;20227;-77
2021/06/17 01:37:16;;;;;;;16.08;13.77;;;;;;;;;;4436294;32;20519;-78
2021/06/17 01:39:41;;;;;;;17.95;13.82;;;;;;;;;;4437669;32;20149;-78
2021/06/17 01:42:08;;;;;;;19.40;15.20;;;;;;;;;;4436221;32;20142;-78
2021/06/17 01:44:34;;;;;;;19.37;15.73;;;;;;;;;;4436456;32;20156;-78
2021/06/17 01:47:01;;;;;;;20.62;15.02;;;;;;;;;;4436679;32;20133;-79
2021/06/17 01:49:26;;;;;;;17.45;15.05;;;;;;;;;;4437254;32;20141;-78
2021/06/17 01:51:52;;;;;;;19.37;16.95;;;;;;;;;;4436061;32;20168;-78
2021/06/17 01:54:21;;;;;;;19.23;15.82;;;;;;;;;;4436265;32;20193;-79
2021/06/17 01:56:50;;;;;;;17.20;14.65;;;;;;;;;;4438059;32;20175;-79
2021/06/17 01:59:16;;;;;;;19.15;16.65;;;;;;;;;;4422370;32;20165;-78
2021/06/17 02:01:42;;;;;;;20.35;17.00;;;;;;;;;;4437211;32;20252;-79
2021/06/17 02:04:08;;;;;;;22.40;18.55;;;;;;;;;;4437617;32;20196;-78
2021/06/17 02:06:34;;;;;;;19.50;14.35;;;;;;;;;;4436167;32;20137;-78
2021/06/17 02:08:59;;;;;;;19.98;16.10;;;;;;;;;;4436170;32;20135;-78
2021/06/17 02:11:26;;;;;;;17.92;15.85;;;;;;;;;;4437608;32;20435;-79
2021/06/17 02:13:52;;;;;;;20.23;17.87;;;;;;;;;;4423177;32;20185;-76
2021/06/17 02:16:18;;;;;;;25.37;19.17;;;;;;;;;;4436685;32;20547;-75
2021/06/17 02:18:44;;;;;;;16.40;13.70;;;;;;;;;;4435591;32;20137;-78
2021/06/17 02:21:10;;;;;;;18.62;15.15;;;;;;;;;;4437179;32;20593;-77
2021/06/17 02:23:36;;;;;;;19.35;14.68;;;;;;;;;;4438935;32;20193;-78
2021/06/17 02:26:02;;;;;;;22.35;17.77;;;;;;;;;;4440052;32;20191;-78
2021/06/17 02:28:29;;;;;;;20.00;16.50;;;;;;;;;;4422074;32;20597;-78
2021/06/17 02:30:58;;;;;;;19.92;17.87;;;;;;;;;;4436799;32;20233;-78
2021/06/17 02:33:23;;;;;;;21.02;17.92;;;;;;;;;;4437459;32;20137;-78
2021/06/17 02:35:51;;;;;;;24.30;20.80;;;;;;;;;;4437428;32;20167;-77
2021/06/17 02:38:16;;;;;;;21.95;18.75;;;;;;;;;;4437143;32;20141;-78
2021/06/17 02:40:44;;;;;;;26.55;22.45;;;;;;;;;;4435962;32;20176;-78
2021/06/17 02:43:11;;;;;;;28.58;23.20;;;;;;;;;;4435169;32;20194;-77
2021/06/17 02:45:37;;;;;;;26.52;23.10;;;;;;;;;;4435414;32;20141;-78
2021/06/17 02:48:02;;;;;;;26.60;23.12;;;;;;;;;;4435843;32;20160;-78
2021/06/17 02:50:27;;;;;;;27.98;24.95;;;;;;;;;;4435664;32;20200;-77
2021/06/17 02:52:53;;;;;;;28.83;23.43;;;;;;;;;;4420951;32;20223;-77
2021/06/17 02:55:18;;;;;;;30.58;26.05;;;;;;;;;;4421983;32;20645;-77
2021/06/17 02:57:57;;;;;;;31.95;27.73;;;;;;;;;;4422237;32;20292;-77
2021/06/17 03:00:25;;;;;;;22.58;19.42;;;;;;;;;;4437553;32;20236;-79
2021/06/17 03:02:50;;;;;;;30.02;26.70;;;;;;;;;;4440156;32;20555;-78
2021/06/17 03:05:19;;;;;;;27.60;23.65;;;;;;;;;;4439923;32;20496;-77
2021/06/17 03:07:48;;;;;;;26.05;22.70;;;;;;;;;;4438601;32;20138;-79
2021/06/17 03:10:14;;;;;;;29.63;25.10;;;;;;;;;;4440456;32;20237;-80
2021/06/17 03:12:42;;;;;;;32.90;28.60;;;;;;;;;;4425079;32;20613;-79
2021/06/17 03:15:07;;;;;;;30.02;25.62;;;;;;;;;;4438173;32;20148;-79
2021/06/17 03:17:33;;;;;;;31.65;27.87;;;;;;;;;;4437973;32;20137;-80
2021/06/17 03:20:00;;;;;;;30.98;27.50;;;;;;;;;;4438579;32;20205;-78
2021/06/17 03:22:26;;;;;;;29.92;26.17;;;;;;;;;;4439898;32;20187;-78
2021/06/17 03:24:52;;;;;;;28.27;25.37;;;;;;;;;;4438858;32;20156;-79
2021/06/17 03:27:18;;;;;;;30.73;26.35;;;;;;;;;;4439109;32;20284;-77
2021/06/17 03:29:46;;;;;;;32.45;29.05;;;;;;;;;;4438871;32;20134;-78
2021/06/17 03:32:12;;;;;;;35.40;31.20;;;;;;;;;;4438724;32;20129;-79
2021/06/17 03:34:38;;;;;;;30.67;27.15;;;;;;;;;;4439103;32;20195;-78
2021/06/17 03:37:03;;;;;;;32.03;27.50;;;;;;;;;;4437671;32;20183;-78
2021/06/17 03:39:29;;;;;;;28.12;25.05;;;;;;;;;;4439694;32;20183;-78
2021/06/17 03:41:54;;;;;;;33.90;30.05;;;;;;;;;;4439489;32;20134;-79
2021/06/17 03:44:20;;;;;;;33.63;28.73;;;;;;;;;;4439895;32;20137;-78
2021/06/17 03:46:46;;;;;;;33.63;28.65;;;;;;;;;;4437521;32;20194;-79
2021/06/17 03:49:11;;;;;;;34.33;29.17;;;;;;;;;;4423582;32;20228;-76
2021/06/17 03:51:37;;;;;;;35.03;27.87;;;;;;;;;;4438798;32;20253;-78
2021/06/17 03:54:03;;;;;;;36.08;26.42;;;;;;;;;;4438106;32;20157;-77
2021/06/17 03:56:28;;;;;;;34.92;28.80;;;;;;;;;;4439294;32;20215;-79
2021/06/17 03:58:53;;;;;;;37.92;32.22;;;;;;;;;;4437951;32;20133;-78
2021/06/17 04:01:19;;;;;;;32.53;28.62;;;;;;;;;;4439245;32;20150;-77
2021/06/17 04:03:45;;;;;;;35.00;31.20;;;;;;;;;;4439380;32;20201;-79
2021/06/17 04:06:11;;;;;;;32.33;26.65;;;;;;;;;;4437686;32;20468;-78
2021/06/17 04:08:39;;;;;;;34.22;30.17;;;;;;;;;;4440570;32;20224;-78
2021/06/17 04:11:06;;;;;;;35.13;29.15;;;;;;;;;;4425271;32;20199;-78
2021/06/17 04:13:33;;;;;;;39.42;34.05;;;;;;;;;;4440248;32;20213;-78
2021/06/17 04:15:59;;;;;;;37.08;30.12;;;;;;;;;;4438519;32;20181;-78
2021/06/17 04:18:24;;;;;;;37.53;30.48;;;;;;;;;;4439113;32;20153;-78
2021/06/17 04:20:50;;;;;;;37.03;32.22;;;;;;;;;;4439031;32;20145;-78
2021/06/17 04:23:18;;;;;;;36.28;32.15;;;;;;;;;;4426246;32;20576;-78
2021/06/17 04:25:44;;;;;;;38.67;29.95;;;;;;;;;;4440151;32;20206;-78
2021/06/17 04:28:10;;;;;;;36.03;32.13;;;;;;;;;;4424779;32;20157;-78
2021/06/17 04:30:35;;;;;;;38.25;33.10;;;;;;;;;;4425552;32;20169;-78
2021/06/17 04:33:10;;;;;;;39.60;35.35;;;;;;;;;;4417388;32;20225;-78
2021/06/17 04:35:36;;;;;;;35.45;29.02;;;;;;;;;;4420385;32;20169;-76
2021/06/17 04:38:02;;;;;;;36.97;30.88;;;;;;;;;;4438170;32;20182;-77
2021/06/17 04:40:27;;;;;;;38.97;31.42;;;;;;;;;;4430080;32;20557;-77
2021/06/17 04:42:59;;;;;;;31.20;27.55;;;;;;;;;;4424574;32;20137;-79
2021/06/17 04:45:26;;;;;;;35.75;29.08;;;;;;;;;;4436820;32;20130;-77
2021/06/17 04:47:52;;;;;;;32.75;25.42;;;;;;;;;;4438001;32;20513;-77
2021/06/17 04:50:17;;;;;;;30.88;26.55;;;;;;;;;;4423632;32;20169;-77
2021/06/17 04:53:04;;;;;;;34.47;29.87;;;;;;;;;;4439605;32;20149;-77
2021/06/17 04:55:30;;;;;;;31.37;27.20;;;;;;;;;;4424630;32;20181;-77
2021/06/17 04:57:55;;;;;;;28.92;25.85;;;;;;;;;;4424543;32;20195;-79
2021/06/17 05:00:21;;;;;;;32.45;26.20;;;;;;;;;;4438051;32;20149;-78
2021/06/17 05:02:46;;;;;;;31.70;28.27;;;;;;;;;;4436805;32;20233;-78
2021/06/17 05:05:11;;;;;;;36.55;27.80;;;;;;;;;;4437767;32;20154;-78
2021/06/17 05:12:47;;;;;;;32.00;26.87;;;;;;;;;;4433948;32;20279;-78
2021/06/17 05:15:12;;;;;;;34.35;26.42;;;;;;;;;;4407554;32;20282;-78
2021/06/17 05:17:37;;;;;;;32.65;24.50;;;;;;;;;;4407802;32;20193;-78
2021/06/17 05:20:06;;;;;;;32.17;24.25;;;;;;;;;;4422966;32;20142;-79
2021/06/17 05:22:31;;;;;;;29.55;23.90;;;;;;;;;;4434583;32;20161;-79
2021/06/17 05:24:56;;;;;;;26.98;22.37;;;;;;;;;;4422550;32;20188;-80
2021/06/17 05:27:21;;;;;;;44.35;26.85;;;;;;;;;;4422234;32;20166;-79
2021/06/17 05:29:47;;;;;;;35.28;26.65;;;;;;;;;;4423709;32;20203;-79
2021/06/17 05:32:14;;;;;;;28.98;23.58;;;;;;;;;;4436810;32;20134;-77
2021/06/17 05:34:40;;;;;;;33.40;25.58;;;;;;;;;;4425915;32;20331;-73
2021/06/17 05:37:05;;;;;;;31.83;23.12;;;;;;;;;;4428390;32;20145;-75
2021/06/17 05:39:30;;;;;;;31.23;23.90;;;;;;;;;;4422466;32;20203;-77
2021/06/17 05:41:55;;;;;;;32.75;22.27;;;;;;;;;;4421830;32;20613;-74
2021/06/17 05:44:21;;;;;;;25.27;20.52;;;;;;;;;;4421735;32;20602;-78
2021/06/17 05:46:46;;;;;;;28.38;22.45;;;;;;;;;;4437309;32;20245;-77
2021/06/17 05:49:13;;;;;;;25.10;21.55;;;;;;;;;;4422147;32;20189;-77
2021/06/17 05:51:38;;;;;;;22.85;19.20;;;;;;;;;;4421452;32;20201;-77
2021/06/17 05:54:03;;;;;;;24.13;17.60;;;;;;;;;;4421109;32;20195;-78
2021/06/17 05:56:29;;;;;;;25.65;20.55;;;;;;;;;;4436448;32;20797;-76
2021/06/17 05:58:54;;;;;;;25.73;19.00;;;;;;;;;;4436243;32;20150;-76
2021/06/17 06:01:19;;;;;;;20.17;17.23;;;;;;;;;;4420554;32;20185;-75
2021/06/17 06:03:44;;;;;;;18.45;15.82;;;;;;;;;;4421220;32;20283;-78
2021/06/17 06:06:10;;;;;;;26.10;17.42;;;;;;;;;;4421524;32;20490;-77
2021/06/17 06:08:35;;;;;;;31.52;20.02;;;;;;;;;;4420783;32;20760;-75
2021/06/17 06:11:00;;;;;;;27.98;17.42;;;;;;;;;;4436790;32;20589;-78
2021/06/17 06:13:25;;;;;;;27.33;19.37;;;;;;;;;;4437622;32;20596;-78
2021/06/17 06:15:51;;;;;;;21.75;19.35;;;;;;;;;;4436733;32;20146;-78
2021/06/17 06:18:17;;;;;;;23.90;18.58;;;;;;;;;;4432651;32;20547;-78
2021/06/17 06:20:43;;;;;;;24.55;18.48;;;;;;;;;;4423348;32;20169;-78
2021/06/17 06:23:09;;;;;;;24.90;18.45;;;;;;;;;;4435567;32;20204;-77
2021/06/17 06:25:35;;;;;;;23.70;16.20;;;;;;;;;;4435026;32;20168;-77
2021/06/17 06:28:00;;;;;;;21.42;16.90;;;;;;;;;;4435675;32;20194;-78
2021/06/17 06:30:26;;;;;;;20.62;16.08;;;;;;;;;;4436137;32;20212;-77
2021/06/17 06:32:51;;;;;;;28.12;17.80;;;;;;;;;;4436789;32;20165;-78
2021/06/17 06:35:16;;;;;;;24.90;18.45;;;;;;;;;;4421140;32;20607;-78
2021/06/17 06:37:48;;;;;;;24.08;15.55;;;;;;;;;;4435600;32;20129;-76
2021/06/17 06:40:14;;;;;;;30.88;15.70;;;;;;;;;;4435867;32;20154;-76
2021/06/17 06:42:39;;;;;;;22.37;15.13;;;;;;;;;;4421131;32;20590;-76
2021/06/17 06:45:04;;;;;;;17.98;13.40;;;;;;;;;;4436769;32;20164;-76
2021/06/17 06:47:30;;;;;;;21.52;14.63;;;;;;;;;;4434321;32;20559;-76
2021/06/17 06:49:55;;;;;;;21.63;12.73;;;;;;;;;;4435838;32;20168;-75
2021/06/17 06:52:20;;;;;;;18.12;12.52;;;;;;;;;;4436076;32;20274;-78
2021/06/17 06:54:45;;;;;;;16.02;12.30;;;;;;;;;;4434700;32;20153;-77
2021/06/17 06:57:10;;;;;;;15.47;10.80;;;;;;;;;;4434960;32;20141;-76
2021/06/17 06:59:35;;;;;;;12.90;10.02;;;;;;;;;;4436700;32;20558;-73
2021/06/17 07:02:02;;;;;;;11.13;8.40;;;;;;;;;;4434434;32;20176;-74
2021/06/17 07:04:27;;;;;;;12.68;8.80;;;;;;;;;;4434459;32;20275;-78
2021/06/17 07:06:52;;;;;;;12.63;7.53;;;;;;;;;;4435060;32;20138;-78
2021/06/17 07:09:17;;;;;;;9.45;6.75;;;;;;;;;;4436510;32;20268;-77
2021/06/17 07:11:45;;;;;;;13.23;5.63;;;;;;;;;;4434820;32;20164;-77
2021/06/17 07:14:10;;;;;;;9.40;6.03;;;;;;;;;;4436730;32;20296;-78
2021/06/17 07:16:35;;;;;;;11.40;5.85;;;;;;;;;;4437021;32;20465;-79
2021/06/17 07:19:02;;;;;;;8.88;4.90;;;;;;;;;;4436982;32;20138;-77
2021/06/17 07:21:28;;;;;;;8.27;4.32;;;;;;;;;;4422147;32;20169;-76
2021/06/17 07:23:53;;;;;;;12.02;4.50;;;;;;;;;;4435728;32;20142;-76
2021/06/17 07:26:21;;;;;;;8.70;4.60;;;;;;;;;;4435646;32;20185;-76
2021/06/17 07:28:46;;;;;;;8.10;4.60;;;;;;;;;;4429798;32;20248;-73
2021/06/17 07:31:11;;;;;;;11.23;4.20;;;;;;;;;;4429141;32;20142;-74
2021/06/17 07:33:37;;;;;;;7.87;3.60;;;;;;;;;;4434727;32;20141;-74
2021/06/17 07:36:02;;;;;;;8.77;3.60;;;;;;;;;;4421860;32;20359;-78
2021/06/17 07:38:27;;;;;;;7.97;3.47;;;;;;;;;;4422248;32;20284;-73
2021/06/17 07:40:52;;;;;;;7.50;3.20;;;;;;;;;;4433608;32;20146;-76
2021/06/17 07:43:17;;;;;;;6.67;3.50;;;;;;;;;;4436739;32;20296;-72
2021/06/17 07:45:42;;;;;;;6.65;3.47;;;;;;;;;;4438083;32;20267;-74
2021/06/17 07:48:11;;;;;;;9.17;3.43;;;;;;;;;;4424644;32;20200;-73
2021/06/17 07:50:36;;;;;;;7.47;3.60;;;;;;;;;;4437441;32;20557;-75
2021/06/17 07:53:02;;;;;;;7.75;3.37;;;;;;;;;;4438555;32;20149;-72
2021/06/17 07:55:27;;;;;;;7.73;3.47;;;;;;;;;;4439359;32;20173;-74
2021/06/17 07:57:52;;;;;;;11.57;3.67;;;;;;;;;;4438578;32;20662;-75
2021/06/17 08:00:17;;;;;;;10.95;3.53;;;;;;;;;;4437701;32;20276;-73
2021/06/17 08:02:43;;;;;;;4.93;3.15;;;;;;;;;;4423128;32;20199;-74
2021/06/17 08:05:08;;;;;;;10.13;3.55;;;;;;;;;;4438781;32;20160;-73
2021/06/17 08:07:33;;;;;;;6.20;3.50;;;;;;;;;;4437744;32;20130;-74
2021/06/17 08:09:58;;;;;;;11.20;3.25;;;;;;;;;;4438594;32;20161;-73
2021/06/17 08:12:26;;;;;;;5.50;3.20;;;;;;;;;;4438498;32;20566;-73
2021/06/17 08:14:52;;;;;;;5.80;3.15;;;;;;;;;;4422633;32;20165;-72
2021/06/17 08:17:17;;;;;;;8.93;3.10;;;;;;;;;;4437799;32;20407;-73
2021/06/17 08:19:42;;;;;;;7.72;3.28;;;;;;;;;;4438619;32;20142;-73
2021/06/17 08:22:11;;;;;;;7.18;3.08;;;;;;;;;;4436817;32;20260;-73
2021/06/17 08:24:37;;;;;;;6.72;3.40;;;;;;;;;;4436497;32;20554;-73
2021/06/17 08:27:03;;;;;;;5.85;3.25;;;;;;;;;;4424585;32;20220;-73
2021/06/17 08:29:28;;;;;;;6.82;3.25;;;;;;;;;;4438772;32;20164;-73
2021/06/17 08:31:53;;;;;;;7.57;3.00;;;;;;;;;;4437482;32;20172;-74
2021/06/17 08:34:19;;;;;;;11.32;3.80;;;;;;;;;;4438592;32;20283;-73
2021/06/17 08:36:44;;;;;;;7.37;3.20;;;;;;;;;;4423893;32;20184;-73
2021/06/17 08:39:09;;;;;;;8.07;3.10;;;;;;;;;;4438597;32;20141;-73
2021/06/17 08:41:35;;;;;;;8.10;3.50;;;;;;;;;;4438623;32;20161;-73
2021/06/17 08:44:00;;;;;;;7.03;2.83;;;;;;;;;;4438486;32;20197;-75
2021/06/17 08:46:25;;;;;;;5.87;3.50;;;;;;;;;;4438442;32;20141;-74
2021/06/17 08:48:50;;;;;;;6.90;3.53;;;;;;;;;;4422781;32;20165;-73
2021/06/17 08:51:19;;;;;;;8.38;3.40;;;;;;;;;;4422406;32;20200;-74
2021/06/17 08:53:44;;;;;;;8.25;3.45;;;;;;;;;;4436432;32;20273;-73
2021/06/17 08:56:10;;;;;;;11.20;3.95;;;;;;;;;;4436498;32;20179;-73
2021/06/17 08:58:35;;;;;;;8.45;3.50;;;;;;;;;;4437939;32;20153;-73
2021/06/17 09:01:10;;;;;;;5.03;3.33;;;;;;;;;;4424432;32;20162;-73
2021/06/17 09:03:37;;;;;;;4.95;3.42;;;;;;;;;;4437922;32;20229;-73
2021/06/17 09:06:03;;;;;;;7.43;3.47;;;;;;;;;;4436352;32;20190;-73
2021/06/17 09:08:33;;;;;;;6.80;3.90;;;;;;;;;;4437774;32;20173;-73
2021/06/17 09:10:58;;;;;;;7.12;3.80;;;;;;;;;;4436577;32;20203;-73
2021/06/17 09:13:27;;;;;;;8.98;3.78;;;;;;;;;;4438153;32;20463;-73
2021/06/17 09:15:54;;;;;;;7.45;3.70;;;;;;;;;;4438729;32;20199;-73
2021/06/17 09:18:20;;;;;;;4.82;3.45;;;;;;;;;;4422678;32;20256;-75
2021/06/17 09:21:00;;;;;;;8.77;3.80;;;;;;;;;;4437013;32;20172;-74
2021/06/17 09:23:25;;;;;;;7.43;3.80;;;;;;;;;;4436214;32;20462;-74
2021/06/17 09:25:58;;;;;;;11.43;3.60;;;;;;;;;;4437956;32;20451;-74
2021/06/17 09:28:25;;;;;;;6.55;3.67;;;;;;;;;;4437647;32;20182;-74
2021/06/17 09:30:50;;;;;;;6.93;3.87;;;;;;;;;;4438187;32;20197;-73
2021/06/17 09:33:15;;;;;;;5.72;3.00;;;;;;;;;;4436250;32;20138;-73
2021/06/17 09:35:47;;;;;;;8.23;3.33;;;;;;;;;;4437927;32;20216;-74
2021/06/17 09:38:12;;;;;;;7.50;4.18;;;;;;;;;;4437944;32;20133;-74
2021/06/17 09:40:50;;;;;;;6.72;4.53;;;;;;;;;;4423423;32;20205;-73
2021/06/17 09:43:15;;;;;;;9.07;3.75;;;;;;;;;;4436220;32;20505;-74
2021/06/17 09:45:49;;;;;;;9.82;4.55;;;;;;;;;;4436534;32;20160;-73
2021/06/17 09:48:32;;;;;;;10.70;4.50;;;;;;;;;;4437634;32;20133;-72
2021/06/17 09:50:57;;;;;;;13.75;4.12;;;;;;;;;;4437039;32;20146;-74
2021/06/17 09:53:23;;;;;;;6.72;3.55;;;;;;;;;;4437090;32;20229;-73
2021/06/17 09:55:50;;;;;;;11.02;3.97;;;;;;;;;;4436647;32;20224;-73
2021/06/17 09:58:34;;;;;;;16.77;5.93;;;;;;;;;;4437708;32;20141;-72
2021/06/17 10:01:01;;;;;;;5.65;3.53;;;;;;;;;;4435648;32;20160;-73
2021/06/17 10:03:26;;;;;;;11.75;3.87;;;;;;;;;;4435751;32;20138;-73
2021/06/17 10:05:51;;;;;;;11.40;3.90;;;;;;;;;;4437397;32;20611;-73
2021/06/17 10:08:17;;;;;;;11.40;4.05;;;;;;;;;;4436221;32;20204;-74
2021/06/17 10:10:42;;;;;;;7.72;3.70;;;;;;;;;;4423211;32;20166;-72
2021/06/17 10:13:09;;;;;;;5.70;3.50;;;;;;;;;;4437234;32;20160;-72
2021/06/17 10:15:34;;;;;;;7.62;4.05;;;;;;;;;;4436780;32;20229;-73
2021/06/17 10:17:59;;;;;;;11.32;4.37;;;;;;;;;;4437192;32;20569;-73
2021/06/17 10:20:24;;;;;;;9.43;3.50;;;;;;;;;;4437296;32;20169;-73
2021/06/17 10:22:56;;;;;;;6.77;3.73;;;;;;;;;;4436919;32;20244;-73
2021/06/17 10:25:32;;;;;;;5.95;3.35;;;;;;;;;;4434992;32;20233;-73
2021/06/17 10:27:58;;;;;;;11.90;4.32;;;;;;;;;;4434914;32;20141;-72
2021/06/17 10:30:46;;;;;;;7.53;4.12;;;;;;;;;;4435561;32;20596;-74
2021/06/17 10:33:26;;;;;;;12.27;4.10;;;;;;;;;;4436824;32;20454;-75
2021/06/17 10:35:52;;;;;;;9.23;4.07;;;;;;;;;;4437116;32;20142;-75
2021/06/17 10:38:17;;;;;;;10.13;4.97;;;;;;;;;;4436194;32;20183;-74
2021/06/17 10:40:43;;;;;;;8.40;4.30;;;;;;;;;;4436924;32;20142;-74
2021/06/17 10:43:19;;;;;;;11.45;4.78;;;;;;;;;;4435081;32;20323;-74
2021/06/17 10:45:45;;;;;;;11.32;4.50;;;;;;;;;;4421321;32;20498;-74
2021/06/17 10:48:12;;;;;;;9.48;4.12;;;;;;;;;;4422189;32;20176;-74
2021/06/17 10:50:43;;;;;;;10.75;4.07;;;;;;;;;;4437221;32;20142;-74
2021/06/17 10:53:14;;;;;;;7.30;3.87;;;;;;;;;;4435206;32;20225;-73
2021/06/17 10:56:26;;;;;;;5.00;2.92;;;;;;;;;;4436478;32;20160;-74
2021/06/17 10:58:51;;;;;;;5.32;3.03;;;;;;;;;;4357047;33;20154;-73
2021/06/17 11:01:16;;;;;;;5.40;3.75;;;;;;;;;;4426312;32;20552;-75
2021/06/17 11:03:42;;;;;;;11.05;3.55;;;;;;;;;;4436785;32;20134;-75
2021/06/17 11:06:07;;;;;;;6.18;3.40;;;;;;;;;;4434342;32;20129;-74
2021/06/17 11:08:32;;;;;;;8.18;3.20;;;;;;;;;;4436556;32;20133;-73
2021/06/17 11:11:03;;;;;;;6.70;3.22;;;;;;;;;;4434674;32;20227;-75
2021/06/17 11:13:28;;;;;;;8.07;3.35;;;;;;;;;;4422360;32;20206;-74
2021/06/17 11:15:54;;;;;;;9.83;3.43;;;;;;;;;;4434852;32;20129;-74
2021/06/17 11:18:38;;;;;;;8.27;3.40;;;;;;;;;;4435405;32;20233;-74
2021/06/17 11:21:03;;;;;;;6.32;2.90;;;;;;;;;;4438629;32;20142;-73
2021/06/17 11:23:29;;;;;;;7.55;3.12;;;;;;;;;;4437253;32;20537;-74
2021/06/17 11:26:00;;;;;;;9.93;3.33;;;;;;;;;;4423727;32;20180;-73
2021/06/17 11:28:46;;;;;;;6.07;3.15;;;;;;;;;;4425198;32;20165;-74
2021/06/17 11:31:11;;;;;;;6.20;3.40;;;;;;;;;;4439233;32;20146;-74
2021/06/17 11:33:43;;;;;;;9.95;3.30;;;;;;;;;;4425596;32;20169;-75
2021/06/17 11:36:11;;;;;;;8.82;2.85;;;;;;;;;;4439638;32;20145;-74
2021/06/17 11:38:37;;;;;;;11.05;3.30;;;;;;;;;;4439292;32;20148;-74
2021/06/17 11:41:09;;;;;;;6.72;3.20;;;;;;;;;;4439483;32;20464;-74
2021/06/17 11:43:35;;;;;;;9.50;3.15;;;;;;;;;;4425719;32;20161;-74
2021/06/17 11:46:00;;;;;;;8.88;3.25;;;;;;;;;;4437604;32;20156;-75
2021/06/17 11:48:26;;;;;;;12.80;3.23;;;;;;;;;;4439577;32;20126;-75
2021/06/17 11:50:52;;;;;;;5.40;2.80;;;;;;;;;;4439310;32;20676;-75
2021/06/17 11:53:18;;;;;;;8.43;3.00;;;;;;;;;;4439034;32;20149;-73
2021/06/17 11:55:44;;;;;;;9.43;2.87;;;;;;;;;;4436572;32;20326;-73
2021/06/17 11:58:09;;;;;;;5.20;2.25;;;;;;;;;;4439211;32;20137;-74
2021/06/17 12:00:34;;;;;;;5.65;2.00;;;;;;;;;;4436874;32;20134;-74
2021/06/17 12:03:00;;;;;;;5.40;2.03;;;;;;;;;;4438469;32;20156;-74
2021/06/17 12:05:27;;;;;;;6.47;2.10;;;;;;;;;;4438495;32;20243;-74
2021/06/17 12:07:54;;;;;;;6.68;2.15;;;;;;;;;;4438961;32;20576;-74
2021/06/17 12:10:21;;;;;;;5.97;2.15;;;;;;;;;;4438569;32;20172;-74
2021/06/17 12:12:50;;;;;;;5.90;2.40;;;;;;;;;;4436999;32;20258;-74
2021/06/17 12:15:20;;;;;;;7.12;2.72;;;;;;;;;;4438336;32;20141;-73
2021/06/17 12:17:47;;;;;;;7.72;2.75;;;;;;;;;;4438626;32;20133;-72
2021/06/17 12:20:14;;;;;;;4.75;2.80;;;;;;;;;;4437970;32;20152;-74
2021/06/17 12:22:41;;;;;;;6.55;2.53;;;;;;;;;;4437336;32;20156;-75
2021/06/17 12:25:07;;;;;;;6.80;2.42;;;;;;;;;;4439066;32;20134;-74
2021/06/17 12:27:32;;;;;;;6.07;2.75;;;;;;;;;;4438651;32;20446;-74
2021/06/17 12:30:17;;;;;;;8.40;3.40;;;;;;;;;;4438841;32;20156;-74
2021/06/17 12:32:42;;;;;;;8.82;3.10;;;;;;;;;;4438194;32;20137;-74
2021/06/17 12:35:08;;;;;;;8.13;3.00;;;;;;;;;;4438137;32;20218;-74
2021/06/17 12:37:49;;;;;;;10.05;3.58;;;;;;;;;;4437473;32;20331;-74
2021/06/17 12:40:25;;;;;;;8.75;3.12;;;;;;;;;;4438404;32;20137;-73
2021/06/17 12:43:21;;;;;;;6.55;3.37;;;;;;;;;;4437576;32;20224;-73
2021/06/17 12:46:07;;;;;;;9.05;3.50;;;;;;;;;;4407291;32;20193;-74
2021/06/17 12:54:01;;;;;;;9.52;3.58;;;;;;;;;;4436334;32;20635;-75
2021/06/17 12:56:26;;;;;;;4.60;3.37;;;;;;;;;;4437622;32;20130;-74
2021/06/17 12:58:52;;;;;;;4.57;2.72;;;;;;;;;;4435526;32;20129;-74
2021/06/17 13:01:21;;;;;;;5.47;3.00;;;;;;;;;;4435332;32;20444;-75
2021/06/17 13:03:46;;;;;;;5.20;2.55;;;;;;;;;;4436227;32;20168;-74
2021/06/17 13:06:11;;;;;;;9.90;3.30;;;;;;;;;;4422897;32;20161;-74
2021/06/17 13:08:47;;;;;;;7.10;2.80;;;;;;;;;;4436202;32;20518;-74
2021/06/17 13:11:25;;;;;;;6.10;2.47;;;;;;;;;;4435902;32;20448;-74
2021/06/17 13:13:58;;;;;;;6.28;2.90;;;;;;;;;;4422986;32;20157;-74
2021/06/17 13:16:23;;;;;;;7.62;2.78;;;;;;;;;;4437086;32;20134;-73
2021/06/17 13:18:50;;;;;;;5.90;2.70;;;;;;;;;;4435276;32;20258;-74
2021/06/17 13:21:16;;;;;;;5.78;2.62;;;;;;;;;;4420936;32;20187;-73
2021/06/17 13:23:41;;;;;;;4.60;2.60;;;;;;;;;;4436383;32;20126;-73
2021/06/17 13:26:10;;;;;;;7.03;2.75;;;;;;;;;;4438132;32;20208;-74
2021/06/17 13:28:55;;;;;;;5.80;2.85;;;;;;;;;;4425842;32;20264;-73
2021/06/17 13:31:32;;;;;;;8.35;2.50;;;;;;;;;;4427624;32;20189;-71
2021/06/17 13:34:05;;;;;;;4.65;2.42;;;;;;;;;;4429129;32;20173;-71
2021/06/17 13:36:30;;;;;;;5.78;2.60;;;;;;;;;;4421672;32;20486;-73
2021/06/17 13:38:56;;;;;;;7.03;2.55;;;;;;;;;;4435383;32;20138;-72
2021/06/17 13:41:21;;;;;;;6.32;2.70;;;;;;;;;;4436660;32;20571;-74
2021/06/17 13:43:46;;;;;;;6.32;2.90;;;;;;;;;;4419510;32;20161;-74
2021/06/17 13:46:11;;;;;;;9.52;3.10;;;;;;;;;;4433718;32;20169;-75
2021/06/17 13:48:38;;;;;;;4.37;2.67;;;;;;;;;;4409700;32;20219;-74
2021/06/17 13:51:03;;;;;;;6.05;3.15;;;;;;;;;;4421803;32;20237;-74
2021/06/17 13:53:29;;;;;;;7.20;3.20;;;;;;;;;;4421899;32;20660;-73
2021/06/17 13:55:54;;;;;;;8.00;3.12;;;;;;;;;;4420005;32;20168;-74
2021/06/17 13:58:19;;;;;;;8.02;3.15;;;;;;;;;;4420239;32;20161;-74
2021/06/17 14:00:44;;;;;;;7.45;3.80;;;;;;;;;;4430174;32;20513;-73
2021/06/17 14:03:10;;;;;;;8.13;3.95;;;;;;;;;;4437208;32;20683;-74
2021/06/17 14:05:36;;;;;;;9.10;3.90;;;;;;;;;;4437179;32;20126;-74
2021/06/17 14:08:01;;;;;;;6.12;3.67;;;;;;;;;;4421960;32;20661;-74
2021/06/17 14:10:27;;;;;;;9.25;4.37;;;;;;;;;;4435824;32;20495;-74
2021/06/17 14:12:53;;;;;;;6.78;3.92;;;;;;;;;;4437051;32;20186;-74
2021/06/17 14:15:18;;;;;;;9.07;4.40;;;;;;;;;;4435809;32;20299;-74
2021/06/17 14:17:44;;;;;;;7.87;4.80;;;;;;;;;;4432056;32;20145;-75
2021/06/17 14:20:10;;;;;;;8.07;4.62;;;;;;;;;;4422201;32;20315;-73
2021/06/17 14:22:35;;;;;;;9.63;4.97;;;;;;;;;;4437346;32;20134;-73
2021/06/17 14:25:00;;;;;;;6.45;4.75;;;;;;;;;;4436437;32;20149;-73
2021/06/17 14:27:26;;;;;;;7.00;4.15;;;;;;;;;;4434066;32;21476;-73
2021/06/17 14:29:51;;;;;;;5.68;3.97;;;;;;;;;;4419698;32;20513;-72
2021/06/17 14:32:18;;;;;;;6.57;3.55;;;;;;;;;;4434560;32;20134;-73
2021/06/17 14:34:43;;;;;;;6.45;3.12;;;;;;;;;;4434730;32;20163;-73
2021/06/17 14:37:08;;;;;;;7.28;3.60;;;;;;;;;;4435378;32;20177;-74
2021/06/17 14:39:34;;;;;;;9.47;4.27;;;;;;;;;;4434442;32;20137;-73